createdAt,value
2019-02-25T00:00:37.536Z,9.23
2019-02-25T00:03:06.503Z,11.85
2019-02-25T00:05:35.835Z,15.20
2019-02-25T00:08:05.140Z,13.95
2019-02-25T00:10:33.868Z,16.20
2019-02-25T00:13:02.576Z,11.70
2019-02-25T00:15:31.340Z,10.20
2019-02-25T00:18:00.077Z,13.58
2019-02-25T00:20:28.796Z,12.20
2019-02-25T00:22:57.554Z,12.35
2019-02-25T00:25:26.832Z,11.83
2019-02-25T00:27:56.186Z,12.82
2019-02-25T00:30:24.841Z,9.90
2019-02-25T00:32:53.576Z,12.27
2019-02-25T00:35:22.848Z,11.45
2019-02-25T00:37:53.067Z,11.65
2019-02-25T00:40:22.347Z,10.35
2019-02-25T00:42:52.838Z,9.38
2019-02-25T00:45:21.521Z,9.17
2019-02-25T00:47:50.841Z,11.00
2019-02-25T00:50:21.090Z,10.25
2019-02-25T00:52:49.829Z,13.53
2019-02-25T00:55:19.112Z,11.35
2019-02-25T00:57:47.864Z,10.93
2019-02-25T01:00:18.175Z,11.50
2019-02-25T01:02:46.952Z,9.87
2019-02-25T01:05:15.933Z,10.98
2019-02-25T01:07:45.000Z,10.20
2019-02-25T01:10:17.570Z,13.13
2019-02-25T01:12:46.506Z,15.25
2019-02-25T01:15:16.060Z,11.07
2019-02-25T01:17:45.521Z,13.30
2019-02-25T01:20:18.046Z,11.63
2019-02-25T01:22:47.653Z,15.08
2019-02-25T01:25:17.960Z,14.40
2019-02-25T01:27:47.226Z,14.70
2019-02-25T01:30:17.605Z,11.37
2019-02-25T01:32:46.882Z,11.33
2019-02-25T01:35:15.599Z,11.77
2019-02-25T01:37:44.678Z,13.27
2019-02-25T01:40:14.116Z,16.63
2019-02-25T01:42:43.313Z,11.60
2019-02-25T01:45:20.001Z,11.43
2019-02-25T01:47:48.742Z,10.93
2019-02-25T01:50:17.463Z,10.70
2019-02-25T01:52:46.206Z,13.03
2019-02-25T01:55:14.916Z,12.03
2019-02-25T01:57:43.833Z,11.50
2019-02-25T02:00:15.734Z,11.57
2019-02-25T02:02:44.433Z,11.10
2019-02-25T02:05:13.756Z,10.90
2019-02-25T02:07:43.400Z,10.70
2019-02-25T02:10:15.256Z,10.15
2019-02-25T02:12:43.986Z,12.23
2019-02-25T02:15:19.888Z,12.93
2019-02-25T02:17:48.601Z,11.28
2019-02-25T02:20:17.967Z,11.38
2019-02-25T02:22:47.624Z,13.03
2019-02-25T02:25:16.379Z,10.93
2019-02-25T02:27:45.078Z,12.10
2019-02-25T02:30:23.730Z,14.53
2019-02-25T02:32:52.468Z,11.87
2019-02-25T02:35:21.217Z,12.28
2019-02-25T02:37:49.943Z,12.40
2019-02-25T02:40:19.056Z,11.03
2019-02-25T02:42:53.938Z,12.43
2019-02-25T02:45:26.165Z,10.98
2019-02-25T02:48:01.674Z,12.30
2019-02-25T02:50:31.979Z,8.55
2019-02-25T02:53:00.982Z,8.80
2019-02-25T02:55:29.729Z,8.20
2019-02-25T02:57:58.539Z,10.25
2019-02-25T03:00:27.879Z,9.28
2019-02-25T03:02:56.641Z,9.97
2019-02-25T03:05:26.266Z,10.98
2019-02-25T03:07:55.383Z,10.72
2019-02-25T03:10:24.060Z,8.87
2019-02-25T03:12:52.785Z,10.43
2019-02-25T03:15:23.230Z,10.13
2019-02-25T03:17:51.975Z,10.33
2019-02-25T03:20:20.733Z,13.30
2019-02-25T03:22:49.447Z,11.00
2019-02-25T03:25:19.124Z,9.03
2019-02-25T03:27:47.863Z,7.77
2019-02-25T03:30:18.857Z,11.00
2019-02-25T03:32:47.606Z,10.87
2019-02-25T03:35:16.323Z,10.00
2019-02-25T03:37:45.649Z,9.70
2019-02-25T03:40:19.941Z,9.70
2019-02-25T03:42:48.648Z,8.80
2019-02-25T03:45:18.415Z,10.27
2019-02-25T03:47:47.212Z,10.53
2019-02-25T03:50:16.845Z,10.20
2019-02-25T03:52:45.524Z,9.43
2019-02-25T03:55:16.181Z,9.17
2019-02-25T03:57:45.147Z,8.97
2019-02-25T04:00:22.515Z,9.95
2019-02-25T04:02:51.609Z,10.10
2019-02-25T04:05:20.617Z,9.33
2019-02-25T04:07:49.329Z,8.77
2019-02-25T04:10:18.071Z,9.18
2019-02-25T04:12:47.369Z,9.25
2019-02-25T04:15:19.361Z,9.70
2019-02-25T04:17:48.633Z,10.15
2019-02-25T04:20:20.129Z,9.88
2019-02-25T04:22:48.492Z,9.18
2019-02-25T04:25:17.568Z,8.27
2019-02-25T04:27:46.821Z,9.23
2019-02-25T04:30:16.394Z,9.60
2019-02-25T04:32:45.121Z,9.57
2019-02-25T04:35:14.144Z,9.48
2019-02-25T04:37:42.894Z,9.60
2019-02-25T04:40:15.297Z,9.50
2019-02-25T04:42:44.389Z,9.78
2019-02-25T04:45:21.101Z,9.80
2019-02-25T04:47:49.798Z,9.88
2019-02-25T04:50:18.622Z,9.53
2019-02-25T04:52:47.368Z,9.73
2019-02-25T04:55:16.329Z,9.73
2019-02-25T04:57:44.985Z,10.03
2019-02-25T05:00:22.941Z,9.70
2019-02-25T05:02:51.704Z,9.77
2019-02-25T05:05:20.455Z,9.67
2019-02-25T05:07:49.127Z,11.05
2019-02-25T05:10:17.843Z,7.17
2019-02-25T05:12:54.358Z,10.35
2019-02-25T05:15:27.344Z,8.98
2019-02-25T05:17:56.661Z,8.93
2019-02-25T05:20:25.468Z,9.90
2019-02-25T05:22:55.179Z,9.73
2019-02-25T05:25:23.905Z,10.37
2019-02-25T05:27:53.264Z,8.18
2019-02-25T05:30:21.973Z,9.67
2019-02-25T05:32:50.706Z,9.50
2019-02-25T05:35:19.975Z,9.98
2019-02-25T05:37:48.712Z,9.37
2019-02-25T05:40:20.847Z,10.53
2019-02-25T05:42:49.596Z,9.83
2019-02-25T05:45:18.356Z,10.60
2019-02-25T05:47:47.485Z,10.87
2019-02-25T05:50:21.143Z,9.73
2019-02-25T05:52:49.889Z,9.53
2019-02-25T05:55:18.638Z,9.10
2019-02-25T05:57:47.343Z,10.45
2019-02-25T06:00:29.151Z,10.05
2019-02-25T06:02:57.869Z,10.35
2019-02-25T06:05:27.121Z,9.60
2019-02-25T06:07:55.889Z,9.07
2019-02-25T06:10:24.588Z,7.80
2019-02-25T06:12:53.342Z,11.75
2019-02-25T06:15:22.089Z,9.20
2019-02-25T06:17:50.802Z,8.70
2019-02-25T06:20:19.568Z,8.33
2019-02-25T06:22:48.230Z,8.63
2019-02-25T06:25:18.119Z,9.15
2019-02-25T06:27:47.681Z,8.80
2019-02-25T06:30:20.418Z,7.50
2019-02-25T06:32:49.173Z,7.58
2019-02-25T06:35:18.283Z,7.78
2019-02-25T06:37:47.454Z,7.70
2019-02-25T06:40:17.843Z,7.85
2019-02-25T06:42:48.081Z,8.70
2019-02-25T06:45:19.015Z,9.13
2019-02-25T06:47:47.633Z,8.55
2019-02-25T06:50:16.390Z,9.13
2019-02-25T06:52:45.666Z,9.63
2019-02-25T06:55:15.813Z,9.38
2019-02-25T06:57:44.850Z,9.40
2019-02-25T07:00:21.801Z,8.33
2019-02-25T07:02:50.552Z,9.40
2019-02-25T07:05:36.789Z,9.00
2019-02-25T07:08:07.041Z,8.78
2019-02-25T07:10:43.152Z,8.93
2019-02-25T07:13:22.542Z,9.60
2019-02-25T07:15:58.510Z,9.50
2019-02-25T07:18:32.563Z,10.53
2019-02-25T07:21:05.308Z,10.00
2019-02-25T07:23:38.428Z,9.08
2019-02-25T07:26:14.465Z,9.05
2019-02-25T07:28:56.539Z,9.05
2019-02-25T07:31:43.291Z,9.57
2019-02-25T07:34:13.600Z,8.93
2019-02-25T07:37:01.265Z,9.23
2019-02-25T07:39:46.937Z,8.38
2019-02-25T07:42:17.256Z,9.05
2019-02-25T07:44:53.892Z,8.30
2019-02-25T07:47:39.212Z,9.73
2019-02-25T07:50:26.004Z,9.28
2019-02-25T07:52:59.667Z,9.00
2019-02-25T07:55:32.723Z,9.43
2019-02-25T07:58:03.046Z,8.98
2019-02-25T08:00:36.211Z,8.83
2019-02-25T08:03:07.048Z,9.43
2019-02-25T08:05:46.685Z,9.33
2019-02-25T08:08:22.963Z,9.80
2019-02-25T08:10:56.230Z,9.65
2019-02-25T08:13:44.250Z,9.03
2019-02-25T08:16:30.909Z,8.75
2019-02-25T08:19:17.887Z,9.60
2019-02-25T08:22:00.304Z,9.30
2019-02-25T08:24:31.164Z,9.18
2019-02-25T08:27:17.978Z,9.28
2019-02-25T08:29:57.074Z,8.17
2019-02-25T08:32:27.355Z,10.00
2019-02-25T08:34:58.648Z,12.58
2019-02-25T08:37:37.838Z,11.05
2019-02-25T08:40:27.731Z,10.03
2019-02-25T08:42:57.991Z,8.20
2019-02-25T08:45:28.287Z,9.48
2019-02-25T08:48:05.457Z,8.77
2019-02-25T08:50:34.720Z,8.68
2019-02-25T08:53:04.025Z,8.68
2019-02-25T08:55:32.855Z,8.58
2019-02-25T08:58:01.578Z,9.60
2019-02-25T09:00:30.319Z,9.75
2019-02-25T09:02:59.074Z,11.03
2019-02-25T09:05:28.349Z,11.33
2019-02-25T09:07:57.083Z,8.28
2019-02-25T09:10:26.397Z,9.53
2019-02-25T09:12:55.123Z,10.60
2019-02-25T09:15:24.485Z,11.95
2019-02-25T09:17:52.193Z,9.45
2019-02-25T09:20:20.829Z,9.55
2019-02-25T09:22:50.019Z,8.93
2019-02-25T09:25:18.785Z,8.45
2019-02-25T09:27:48.092Z,8.58
2019-02-25T09:30:18.290Z,8.48
2019-02-25T09:32:47.566Z,9.10
2019-02-25T09:35:16.873Z,9.48
2019-02-25T09:37:46.145Z,8.35
2019-02-25T09:40:17.667Z,8.65
2019-02-25T09:42:46.935Z,8.90
2019-02-25T09:45:17.217Z,8.48
2019-02-25T09:47:46.472Z,9.65
2019-02-25T09:50:18.093Z,10.03
2019-02-25T09:52:47.673Z,8.93
2019-02-25T09:55:16.994Z,9.58
2019-02-25T09:57:46.314Z,8.23
2019-02-25T10:00:17.591Z,8.10
2019-02-25T10:02:47.810Z,8.60
2019-02-25T10:05:17.064Z,8.53
2019-02-25T10:07:47.316Z,8.70
2019-02-25T10:10:17.795Z,8.15
2019-02-25T10:12:47.123Z,8.15
2019-02-25T10:15:27.532Z,7.20
2019-02-25T10:17:56.786Z,8.18
2019-02-25T10:20:26.126Z,6.97
2019-02-25T10:22:55.377Z,7.40
2019-02-25T10:25:24.638Z,7.03
2019-02-25T10:27:53.946Z,7.55
2019-02-25T10:30:23.268Z,6.60
2019-02-25T10:32:52.634Z,7.17
2019-02-25T10:35:27.231Z,6.97
2019-02-25T10:37:56.577Z,6.87
2019-02-25T10:40:27.558Z,6.90
2019-02-25T10:42:56.967Z,6.53
2019-02-25T10:45:26.213Z,6.00
2019-02-25T10:47:58.495Z,6.33
2019-02-25T10:50:26.363Z,5.85
2019-02-25T10:53:03.291Z,6.22
2019-02-25T10:55:36.094Z,6.58
2019-02-25T10:58:07.688Z,6.22
2019-02-25T11:00:39.344Z,7.08
2019-02-25T11:03:10.635Z,6.15
2019-02-25T11:05:39.110Z,6.35
2019-02-25T11:08:11.589Z,7.30
2019-02-25T11:10:50.318Z,7.65
2019-02-25T11:13:19.516Z,7.50
2019-02-25T11:15:48.798Z,7.10
2019-02-25T11:18:20.273Z,7.00
2019-02-25T11:20:48.928Z,7.53
2019-02-25T11:23:19.385Z,7.47
2019-02-25T11:25:49.176Z,7.75
2019-02-25T11:28:25.617Z,7.50
2019-02-25T11:30:51.165Z,7.53
2019-02-25T11:33:22.456Z,7.62
2019-02-25T11:35:51.179Z,6.87
2019-02-25T11:38:20.508Z,7.50
2019-02-25T11:40:49.720Z,6.72
2019-02-25T11:43:21.461Z,6.70
2019-02-25T11:45:49.937Z,6.65
2019-02-25T11:48:19.207Z,7.00
2019-02-25T11:50:48.530Z,6.85
2019-02-25T11:53:17.915Z,7.10
2019-02-25T11:55:47.218Z,6.10
2019-02-25T11:58:16.830Z,6.87
2019-02-25T12:00:46.095Z,6.70
2019-02-25T12:03:15.504Z,6.92
2019-02-25T12:05:44.830Z,6.92
2019-02-25T12:08:14.547Z,6.05
2019-02-25T12:10:43.792Z,5.33
2019-02-25T12:13:13.250Z,5.37
2019-02-25T12:15:42.490Z,4.78
2019-02-25T12:18:11.810Z,5.20
2019-02-25T12:20:41.437Z,4.60
2019-02-25T12:23:10.712Z,5.00
2019-02-25T12:25:40.005Z,4.30
2019-02-25T12:28:09.285Z,4.10
2019-02-25T12:30:38.596Z,4.42
2019-02-25T12:33:07.869Z,8.13
2019-02-25T12:35:37.160Z,6.05
2019-02-25T12:38:06.476Z,4.92
2019-02-25T12:40:35.731Z,3.80
2019-02-25T12:43:05.439Z,4.25
2019-02-25T12:45:34.658Z,5.35
2019-02-25T12:48:03.879Z,5.08
2019-02-25T12:50:33.146Z,4.70
2019-02-25T12:53:02.471Z,5.08
2019-02-25T12:55:31.747Z,4.80
2019-02-25T12:58:01.052Z,5.28
2019-02-25T13:00:30.318Z,5.08
2019-02-25T13:02:59.563Z,5.30
2019-02-25T13:05:29.229Z,5.05
2019-02-25T13:07:58.505Z,4.72
2019-02-25T13:10:27.810Z,5.37
2019-02-25T13:12:57.432Z,4.95
2019-02-25T13:15:26.712Z,7.12
2019-02-25T13:17:55.959Z,5.90
2019-02-25T13:20:25.397Z,5.40
2019-02-25T13:22:54.633Z,6.67
2019-02-25T13:25:33.547Z,6.33
2019-02-25T13:28:04.308Z,5.55
2019-02-25T13:30:33.769Z,5.85
2019-02-25T13:33:03.049Z,6.00
2019-02-25T13:35:32.382Z,5.83
2019-02-25T13:38:01.704Z,6.47
2019-02-25T13:40:31.172Z,5.60
2019-02-25T13:43:00.454Z,6.62
2019-02-25T13:45:30.093Z,5.87
2019-02-25T13:47:59.377Z,6.50
2019-02-25T13:50:28.710Z,5.80
2019-02-25T13:52:57.969Z,5.62
2019-02-25T13:55:27.233Z,6.03
2019-02-25T13:57:57.653Z,6.20
2019-02-25T14:00:29.968Z,6.50
2019-02-25T14:02:59.271Z,5.60
2019-02-25T14:05:28.738Z,6.33
2019-02-25T14:07:58.056Z,6.12
2019-02-25T14:10:27.261Z,6.17
2019-02-25T14:12:56.578Z,6.70
2019-02-25T14:15:25.867Z,6.15
2019-02-25T14:17:55.502Z,6.65
2019-02-25T14:20:25.613Z,5.70
2019-02-25T14:22:54.920Z,6.42
2019-02-25T14:25:34.956Z,6.42
2019-02-25T14:28:07.901Z,6.08
2019-02-25T14:30:35.814Z,6.35
2019-02-25T14:33:05.098Z,5.67
2019-02-25T14:35:34.406Z,5.97
2019-02-25T14:38:10.085Z,6.35
2019-02-25T14:40:41.911Z,6.75
2019-02-25T14:43:10.533Z,6.33
2019-02-25T14:45:41.998Z,6.47
2019-02-25T14:48:10.819Z,5.62
2019-02-25T14:50:40.591Z,5.20
2019-02-25T14:53:11.426Z,5.62
2019-02-25T14:55:42.731Z,6.10
2019-02-25T14:58:12.661Z,5.80
2019-02-25T15:00:42.515Z,5.95
2019-02-25T15:03:11.817Z,5.22
2019-02-25T15:05:41.132Z,4.65
2019-02-25T15:08:12.615Z,5.28
2019-02-25T15:10:42.944Z,6.47
2019-02-25T15:13:12.352Z,7.40
2019-02-25T15:15:43.462Z,6.65
2019-02-25T15:18:12.544Z,6.47
2019-02-25T15:20:41.818Z,5.80
2019-02-25T15:23:14.575Z,5.70
2019-02-25T15:25:43.168Z,6.05
2019-02-25T15:28:14.176Z,5.45
2019-02-25T15:30:43.578Z,5.28
2019-02-25T15:33:13.257Z,5.67
2019-02-25T15:35:43.836Z,5.40
2019-02-25T15:38:13.210Z,5.80
2019-02-25T15:40:42.584Z,5.83
2019-02-25T15:43:18.714Z,6.03
2019-02-25T15:45:47.115Z,5.83
2019-02-25T15:48:18.971Z,5.72
2019-02-25T15:50:50.716Z,6.08
2019-02-25T15:53:19.967Z,5.50
2019-02-25T15:55:49.664Z,5.85
2019-02-25T15:58:19.276Z,6.03
2019-02-25T16:00:48.580Z,6.10
2019-02-25T16:03:20.414Z,6.20
2019-02-25T16:05:52.340Z,6.50
2019-02-25T16:08:21.290Z,6.60
2019-02-25T16:10:51.732Z,6.65
2019-02-25T16:13:21.879Z,6.47
2019-02-25T16:15:51.207Z,6.80
2019-02-25T16:18:27.472Z,7.95
2019-02-25T16:20:52.837Z,8.35
2019-02-25T16:23:22.123Z,10.00
2019-02-25T16:25:53.153Z,10.30
2019-02-25T16:28:22.625Z,10.00
2019-02-25T16:30:52.008Z,12.55
2019-02-25T16:33:21.342Z,11.88
2019-02-25T16:35:50.666Z,12.03
2019-02-25T16:38:23.026Z,11.97
2019-02-25T16:40:54.632Z,11.90
2019-02-25T16:43:22.429Z,10.53
2019-02-25T16:45:53.008Z,12.28
2019-02-25T16:48:24.184Z,11.85
2019-02-25T16:50:53.229Z,11.03
2019-02-25T16:53:22.526Z,11.70
2019-02-25T16:55:51.910Z,11.93
2019-02-25T16:58:21.141Z,12.05
2019-02-25T17:00:50.668Z,12.85
2019-02-25T17:03:20.162Z,11.95
2019-02-25T17:05:50.388Z,12.73
2019-02-25T17:08:20.549Z,13.13
2019-02-25T17:10:51.866Z,12.93
2019-02-25T17:13:20.729Z,14.53
2019-02-25T17:15:50.040Z,14.30
2019-02-25T17:18:19.398Z,14.95
2019-02-25T17:20:50.264Z,16.12
2019-02-25T17:23:19.923Z,14.65
2019-02-25T17:25:50.197Z,14.00
2019-02-25T17:28:20.240Z,14.53
2019-02-25T17:30:52.498Z,13.88
2019-02-25T17:33:21.326Z,14.47
2019-02-25T17:35:54.076Z,14.30
2019-02-25T17:38:22.995Z,14.18
2019-02-25T17:40:52.860Z,14.85
2019-02-25T17:43:22.178Z,14.78
2019-02-25T17:45:51.459Z,15.20
2019-02-25T17:48:21.376Z,14.78
2019-02-25T17:50:50.761Z,14.90
2019-02-25T17:53:21.776Z,15.75
2019-02-25T17:55:52.852Z,13.88
2019-02-25T17:58:22.074Z,17.82
2019-02-25T18:00:53.960Z,17.57
2019-02-25T18:03:24.839Z,17.15
2019-02-25T18:05:56.830Z,17.60
2019-02-25T18:08:27.571Z,17.52
2019-02-25T18:10:57.137Z,17.35
2019-02-25T18:13:28.134Z,18.30
2019-02-25T18:15:57.735Z,16.60
2019-02-25T18:18:26.512Z,17.52
2019-02-25T18:20:57.318Z,23.45
2019-02-25T18:23:26.645Z,30.55
2019-02-25T18:25:58.689Z,22.90
2019-02-25T18:28:26.852Z,20.25
2019-02-25T18:30:55.797Z,18.73
2019-02-25T18:33:25.302Z,22.25
2019-02-25T18:35:55.461Z,29.15
2019-02-25T18:38:25.341Z,27.07
2019-02-25T18:40:54.594Z,26.90
2019-02-25T18:43:24.230Z,26.60
2019-02-25T18:45:53.461Z,27.37
2019-02-25T18:48:23.311Z,22.82
2019-02-25T18:50:56.682Z,23.38
2019-02-25T18:53:25.013Z,22.75
2019-02-25T18:55:56.631Z,19.77
2019-02-25T18:58:25.407Z,21.52
2019-02-25T19:00:54.636Z,23.90
2019-02-25T19:03:24.920Z,19.67
2019-02-25T19:05:55.301Z,20.27
2019-02-25T19:08:24.556Z,21.20
2019-02-25T19:10:54.891Z,20.08
2019-02-25T19:13:25.274Z,26.17
2019-02-25T19:15:57.031Z,23.22
2019-02-25T19:18:25.844Z,20.43
2019-02-25T19:20:54.547Z,23.77
2019-02-25T19:23:23.749Z,20.48
2019-02-25T19:25:52.645Z,19.90
2019-02-25T19:28:22.290Z,20.57
2019-02-25T19:30:52.557Z,21.07
2019-02-25T19:33:21.464Z,16.20
2019-02-25T19:35:50.254Z,20.32
2019-02-25T19:38:21.160Z,22.30
2019-02-25T19:40:52.963Z,16.67
2019-02-25T19:43:21.450Z,18.92
2019-02-25T19:45:50.171Z,21.00
2019-02-25T19:48:19.836Z,20.65
2019-02-25T19:50:51.373Z,21.43
2019-02-25T19:53:21.045Z,19.50
2019-02-25T19:55:51.786Z,23.00
2019-02-25T19:58:20.697Z,22.32
2019-02-25T20:00:52.929Z,20.10
2019-02-25T20:03:22.122Z,23.87
2019-02-25T20:05:51.957Z,21.90
2019-02-25T20:08:21.046Z,20.23
2019-02-25T20:10:50.344Z,19.45
2019-02-25T20:13:21.873Z,20.70
2019-02-25T20:15:51.141Z,21.37
2019-02-25T20:18:20.342Z,24.43
2019-02-25T20:20:49.289Z,27.42
2019-02-25T20:23:20.244Z,22.07
2019-02-25T20:25:51.020Z,24.27
2019-02-25T20:28:20.708Z,23.00
2019-02-25T20:30:51.634Z,19.00
2019-02-25T20:33:23.627Z,20.85
2019-02-25T20:35:53.496Z,20.05
2019-02-25T20:38:26.837Z,17.48
2019-02-25T20:40:55.329Z,20.17
2019-02-25T20:43:25.863Z,19.77
2019-02-25T20:45:56.451Z,17.82
2019-02-25T20:48:27.401Z,17.50
2019-02-25T20:50:59.663Z,18.00
2019-02-25T20:53:29.112Z,18.83
2019-02-25T20:55:58.814Z,25.08
2019-02-25T20:58:27.739Z,17.65
2019-02-25T21:00:57.024Z,17.02
2019-02-25T21:03:27.794Z,15.60
2019-02-25T21:05:56.598Z,16.40
2019-02-25T21:08:25.365Z,15.35
2019-02-25T21:10:54.227Z,11.90
2019-02-25T21:13:28.428Z,10.65
2019-02-25T21:15:55.695Z,11.78
2019-02-25T21:18:26.576Z,10.35
2019-02-25T21:20:55.371Z,12.55
2019-02-25T21:23:24.125Z,12.50
2019-02-25T21:25:55.441Z,12.77
2019-02-25T21:28:25.144Z,13.58
2019-02-25T21:30:53.515Z,14.58
2019-02-25T21:33:25.516Z,13.90
2019-02-25T21:35:52.674Z,13.03
2019-02-25T21:38:23.890Z,14.73
2019-02-25T21:40:52.694Z,15.75
2019-02-25T21:43:26.112Z,15.78
2019-02-25T21:45:56.525Z,14.60
2019-02-25T21:48:25.661Z,13.83
2019-02-25T21:50:58.116Z,14.55
2019-02-25T21:53:27.095Z,14.28
2019-02-25T21:55:57.744Z,16.12
2019-02-25T21:58:27.723Z,17.32
2019-02-25T22:00:56.925Z,18.60
2019-02-25T22:03:25.682Z,18.05
2019-02-25T22:05:56.200Z,16.12
2019-02-25T22:08:26.689Z,16.67
2019-02-25T22:10:55.431Z,17.75
2019-02-25T22:13:24.315Z,19.32
2019-02-25T22:15:53.040Z,20.77
2019-02-25T22:18:21.852Z,18.00
2019-02-25T22:20:52.191Z,19.27
2019-02-25T22:23:24.335Z,18.30
2019-02-25T22:25:53.755Z,21.73
2019-02-25T22:28:22.460Z,23.02
2019-02-25T22:30:51.876Z,21.95
2019-02-25T22:33:27.520Z,24.18
2019-02-25T22:35:53.097Z,24.33
2019-02-25T22:38:21.975Z,23.50
2019-02-25T22:40:53.165Z,19.75
2019-02-25T22:43:21.731Z,18.75
2019-02-25T22:45:51.088Z,17.45
2019-02-25T22:48:21.578Z,17.20
2019-02-25T22:50:53.242Z,17.37
2019-02-25T22:53:20.771Z,17.95
2019-02-25T22:55:52.223Z,16.57
2019-02-25T22:58:20.939Z,16.67
2019-02-25T23:00:52.145Z,16.17
2019-02-25T23:03:22.725Z,16.40
2019-02-25T23:05:53.257Z,20.02
2019-02-25T23:08:23.584Z,14.80
2019-02-25T23:10:54.167Z,18.98
2019-02-25T23:13:25.049Z,18.07
2019-02-25T23:15:54.522Z,14.33
2019-02-25T23:18:25.885Z,14.13
2019-02-25T23:20:55.493Z,15.03
2019-02-25T23:23:26.418Z,12.78
2019-02-25T23:25:56.539Z,11.70
2019-02-25T23:28:26.133Z,13.53
2019-02-25T23:30:56.015Z,15.50
2019-02-25T23:33:24.812Z,11.77
2019-02-25T23:35:55.512Z,12.37
2019-02-25T23:38:24.429Z,11.33
2019-02-25T23:40:53.138Z,12.90
2019-02-25T23:43:21.884Z,12.80
2019-02-25T23:45:53.025Z,13.93
2019-02-25T23:48:24.485Z,13.22
2019-02-25T23:50:54.949Z,12.28
2019-02-25T23:53:24.486Z,11.03
2019-02-25T23:55:54.428Z,11.93
2019-02-25T23:58:24.063Z,13.18
